Pagrindinis puslapis
METAR-TAF:

METAR-TAF

Oro uostai :

Basra, Irakas

platuma: 30-32-56N, ilguma: 47-39-45E, Aukštis: 1 m

Dabartinis oras

Ataskaita buvo paskelbta 24 minutes, ne 14:00 UTC
Vėjas 12 kt iš Vakarų/Šiaurės Vakarų
Temperatūra 41°C
Drėgmė 13%
Slėgis 1006 hPa
Matomumas 10 km arba daugiau
nėra debesų žemiau 1500 m ir nėra kamuolinių lietaus debesų

METAR: ORMM 191400Z 30012KT CAVOK 41/07 Q1006 NOSIG

Laikas: 17:24 (14:24 UTC)

Prognozė

Ataskaita buvo paskelbta 3 valandos ir 24 minutes, ne 11:00 UTC
Prognozė galioja nuo 19 metu 12 UTC su 20 metu 12 UTC
Vėjas 14 kt iš Šiaurės Vakarų
Matomumas 10 km arba daugiau
nėra debesų žemiau 1500 m ir nėra kamuolinių lietaus debesų
Tapsmas
nuo 19 metu 15 UTC su 19 metu 17 UTC
Vėjas 6 kt iš Vakarų/Šiaurės Vakarų
Tapsmas
nuo 20 metu 07 UTC su 20 metu 09 UTC
Vėjas 16 kt iš Vakarų/Šiaurės Vakarų
Matomumas: 8000 m

TAF: ORMM 191100Z 1912/2012 32014KT CAVOK BECMG 1915/1917 29006KT BECMG 2007/2009 30016KT 8000 NSC

Orai ataskaitas ir orų prognozės (METAR, TAF).

turimą stotys yra geltonos ir raudonos taškus žemėlapyje.

Perkelti pele per norėdami pamatyti stoties vardą.

Tada spustelėkite, norėdami matyti oro stebėjimo ir prognozės.

Norėdami pakeisti žemėlapį: spustelėkite ant žalios mygtukų su juodo kryžiaus žemyn,; žalią mygtuką su brūkšneliu, jei norite nutolinti; arba žalių rodyklių gretimoms žemėlapius.


METAR-TAF: